createdAt,value
2019-03-21T14:33:34.723Z,16.91
2019-03-21T14:34:34.711Z,16.91
2019-03-21T14:35:34.700Z,16.95
2019-03-21T14:36:34.695Z,16.98
2019-03-21T14:37:34.679Z,16.95
2019-03-21T14:38:34.668Z,16.90
2019-03-21T14:39:34.659Z,16.90
2019-03-21T14:40:34.647Z,16.92
2019-03-21T14:41:34.635Z,16.91
2019-03-21T14:42:34.694Z,16.91
2019-03-21T14:43:34.618Z,16.92
2019-03-21T14:44:34.604Z,16.87
2019-03-21T14:45:34.646Z,16.90
2019-03-21T14:46:34.583Z,16.90
2019-03-21T14:47:36.326Z,16.81
2019-03-21T14:48:34.559Z,16.76
2019-03-21T14:49:34.548Z,16.77
2019-03-21T14:50:34.538Z,16.83
2019-03-21T14:51:34.531Z,16.83
2019-03-21T14:52:34.515Z,16.90
2019-03-21T14:53:34.507Z,16.90
2019-03-21T14:54:34.497Z,16.83
2019-03-21T14:55:34.485Z,16.77
2019-03-21T14:56:34.475Z,16.76
2019-03-21T14:57:34.461Z,16.79
2019-03-21T14:58:34.451Z,16.81
2019-03-21T14:59:34.440Z,16.83
2019-03-21T15:00:34.429Z,16.79
2019-03-21T15:01:34.417Z,16.76
2019-03-21T15:02:34.410Z,16.77
2019-03-21T15:03:34.403Z,16.80
2019-03-21T15:04:34.385Z,16.83
2019-03-21T15:05:34.373Z,16.83
2019-03-21T15:06:34.364Z,16.83
2019-03-21T15:07:34.352Z,16.80
2019-03-21T15:08:34.341Z,16.79
2019-03-21T15:09:34.330Z,16.81
2019-03-21T15:10:34.320Z,16.83
2019-03-21T15:11:34.354Z,16.79
2019-03-21T15:12:34.297Z,16.76
2019-03-21T15:13:34.353Z,16.74
2019-03-21T15:14:34.278Z,16.68
2019-03-21T15:15:34.266Z,16.68
2019-03-21T15:16:34.255Z,16.62
2019-03-21T15:17:34.247Z,16.56
2019-03-21T15:18:34.233Z,16.51
2019-03-21T15:19:34.221Z,16.44
2019-03-21T15:20:34.211Z,16.43
2019-03-21T15:21:34.200Z,16.43
2019-03-21T15:22:34.188Z,16.41
2019-03-21T15:23:40.735Z,16.43
2019-03-21T15:24:55.346Z,16.40
2019-03-21T15:25:55.506Z,16.39
2019-03-21T15:26:55.326Z,16.41
2019-03-21T15:27:55.315Z,16.43
2019-03-21T15:28:55.306Z,16.44
2019-03-21T15:29:55.352Z,16.43
2019-03-21T15:30:55.283Z,16.40
2019-03-21T15:31:55.270Z,16.39
2019-03-21T15:32:55.259Z,16.39
2019-03-21T15:33:55.250Z,16.39
2019-03-21T15:34:55.239Z,16.36
2019-03-21T15:35:55.226Z,16.33
2019-03-21T15:36:55.216Z,16.29
2019-03-21T15:37:55.207Z,16.25
2019-03-21T15:38:55.194Z,16.21
2019-03-21T15:39:55.187Z,16.21
2019-03-21T15:40:55.172Z,16.13
2019-03-21T15:41:55.164Z,16.08
2019-03-21T15:42:57.039Z,16.04
2019-03-21T15:43:55.141Z,16.01
2019-03-21T15:45:10.353Z,16.03
2019-03-21T15:45:56.135Z,16.07
2019-03-21T15:46:55.107Z,16.10
2019-03-21T15:47:55.100Z,16.08
2019-03-21T15:48:55.089Z,16.06
2019-03-21T15:49:55.079Z,16.04
2019-03-21T15:51:03.826Z,16.03
2019-03-21T15:52:16.235Z,16.03
2019-03-21T15:53:16.223Z,15.98
2019-03-21T15:54:16.211Z,15.95
2019-03-21T15:55:16.206Z,15.93
2019-03-21T15:56:16.191Z,15.92
2019-03-21T15:57:16.181Z,15.89
2019-03-21T15:58:16.174Z,15.85
2019-03-21T15:59:16.158Z,15.84
2019-03-21T16:00:16.148Z,15.80
2019-03-21T16:01:16.140Z,15.77
2019-03-21T16:02:16.130Z,15.74
2019-03-21T16:03:16.114Z,15.73
2019-03-21T16:04:16.103Z,15.71
2019-03-21T16:05:16.094Z,15.67
2019-03-21T16:06:16.082Z,15.62
2019-03-21T16:07:16.070Z,15.60
2019-03-21T16:08:16.063Z,15.59
2019-03-21T16:09:16.052Z,15.60
2019-03-21T16:10:16.039Z,15.60
2019-03-21T16:11:16.027Z,15.60
2019-03-21T16:12:16.018Z,15.60
2019-03-21T16:13:16.006Z,15.60
2019-03-21T16:14:16.000Z,15.59
2019-03-21T16:15:15.991Z,15.56
2019-03-21T16:16:15.974Z,15.53
2019-03-21T16:17:15.964Z,15.53
2019-03-21T16:18:15.953Z,15.51
2019-03-21T16:19:15.944Z,15.52
2019-03-21T16:20:15.931Z,15.48
2019-03-21T16:21:15.924Z,15.40
2019-03-21T16:22:15.909Z,15.39
2019-03-21T16:23:15.900Z,15.34
2019-03-21T16:24:15.890Z,15.33
2019-03-21T16:25:15.878Z,15.27
2019-03-21T16:26:15.868Z,15.24
2019-03-21T16:27:15.854Z,15.26
2019-03-21T16:28:15.845Z,15.26
2019-03-21T16:29:15.834Z,15.27
2019-03-21T16:30:15.824Z,15.27
2019-03-21T16:31:15.811Z,15.29
2019-03-21T16:32:15.800Z,15.30
2019-03-21T16:33:15.791Z,15.29
2019-03-21T16:34:15.782Z,15.27
2019-03-21T16:35:15.771Z,15.24
2019-03-21T16:36:15.758Z,15.21
2019-03-21T16:37:15.784Z,15.17
2019-03-21T16:38:15.736Z,15.15
2019-03-21T16:39:15.727Z,15.12
2019-03-21T16:40:15.713Z,15.08
2019-03-21T16:41:15.704Z,15.03
2019-03-21T16:42:15.695Z,15.04
2019-03-21T16:43:15.684Z,15.00
2019-03-21T16:44:15.671Z,14.97
2019-03-21T16:45:15.663Z,14.97
2019-03-21T16:46:15.652Z,14.96
2019-03-21T16:47:15.639Z,14.94
2019-03-21T16:48:15.630Z,14.94
2019-03-21T16:49:15.622Z,14.90
2019-03-21T16:50:15.611Z,14.90
2019-03-21T16:51:15.598Z,14.86
2019-03-21T16:52:15.586Z,14.89
2019-03-21T16:53:15.574Z,14.85
2019-03-21T16:54:17.347Z,14.86
2019-03-21T16:55:15.552Z,14.89
2019-03-21T16:56:15.551Z,14.84
2019-03-21T16:57:15.531Z,14.81
2019-03-21T16:58:15.520Z,14.81
2019-03-21T16:59:15.510Z,14.79
2019-03-21T17:00:17.774Z,14.77
2019-03-21T17:01:15.499Z,14.72
2019-03-21T17:02:15.476Z,14.69
2019-03-21T17:03:15.467Z,14.64
2019-03-21T17:04:15.455Z,14.59
2019-03-21T17:05:15.460Z,14.56
2019-03-21T17:06:15.455Z,14.53
2019-03-21T17:07:15.447Z,14.52
2019-03-21T17:08:15.514Z,14.52
2019-03-21T17:09:15.408Z,14.52
2019-03-21T17:10:15.420Z,14.52
2019-03-21T17:11:15.415Z,14.49
2019-03-21T17:12:15.369Z,14.46
2019-03-21T17:13:15.496Z,14.44
2019-03-21T17:14:15.367Z,14.42
2019-03-21T17:15:15.363Z,14.38
2019-03-21T17:16:15.334Z,14.38
2019-03-21T17:17:15.326Z,14.34
2019-03-21T17:18:15.307Z,14.31
2019-03-21T17:19:15.397Z,14.27
2019-03-21T17:20:15.284Z,14.24
2019-03-21T17:21:15.273Z,14.23
2019-03-21T17:22:15.306Z,14.21
2019-03-21T17:23:15.251Z,14.19
2019-03-21T17:24:15.241Z,14.13
2019-03-21T17:25:15.228Z,14.09
2019-03-21T17:26:15.965Z,14.01
2019-03-21T17:27:15.210Z,13.95
2019-03-21T17:28:15.198Z,13.89
2019-03-21T17:29:15.186Z,13.82
2019-03-21T17:30:15.175Z,13.78
2019-03-21T17:31:15.165Z,13.72
2019-03-21T17:32:17.354Z,13.72
2019-03-21T17:33:15.143Z,13.70
2019-03-21T17:34:15.132Z,13.61
2019-03-21T17:35:15.123Z,13.46
2019-03-21T17:36:15.118Z,13.37
2019-03-21T17:37:15.099Z,13.27
2019-03-21T17:38:15.089Z,13.22
2019-03-21T17:39:15.080Z,13.13
2019-03-21T17:40:15.074Z,13.04
2019-03-21T17:41:15.056Z,12.95
2019-03-21T17:42:15.051Z,12.81
2019-03-21T17:43:15.036Z,12.74
2019-03-21T17:44:15.024Z,12.71
2019-03-21T17:45:15.020Z,12.67
2019-03-21T17:46:15.000Z,12.58
2019-03-21T17:47:14.994Z,12.53
2019-03-21T17:48:14.982Z,12.42
2019-03-21T17:49:14.970Z,12.39
2019-03-21T17:50:14.963Z,12.40
2019-03-21T17:51:14.950Z,12.42
2019-03-21T17:52:14.937Z,12.39
2019-03-21T17:53:14.928Z,12.39
2019-03-21T17:54:14.917Z,12.36
2019-03-21T17:55:14.906Z,12.30
2019-03-21T17:56:14.894Z,12.25
2019-03-21T17:57:14.884Z,12.21
2019-03-21T17:58:14.874Z,12.15
2019-03-21T17:59:14.863Z,12.12
2019-03-21T18:00:14.850Z,12.07
2019-03-21T18:01:14.839Z,12.03
2019-03-21T18:02:14.831Z,11.97
2019-03-21T18:03:14.884Z,11.93
2019-03-21T18:04:14.806Z,11.87
2019-03-21T18:05:14.795Z,11.78
2019-03-21T18:06:14.787Z,11.72
2019-03-21T18:07:14.777Z,11.66
2019-03-21T18:08:14.763Z,11.62
2019-03-21T18:09:14.751Z,11.59
2019-03-21T18:10:14.743Z,11.54
2019-03-21T18:11:14.729Z,11.51
2019-03-21T18:12:14.721Z,11.49
2019-03-21T18:13:14.710Z,11.46
2019-03-21T18:14:14.919Z,11.49
2019-03-21T18:15:14.687Z,11.49
2019-03-21T18:16:14.709Z,11.49
2019-03-21T18:17:14.665Z,11.48
2019-03-21T18:18:14.653Z,11.49
2019-03-21T18:19:14.643Z,11.48
2019-03-21T18:20:14.632Z,11.51
2019-03-21T18:21:14.623Z,11.48
2019-03-21T18:22:14.610Z,11.46
2019-03-21T18:23:14.601Z,11.42
2019-03-21T18:24:14.590Z,11.35
2019-03-21T18:25:14.579Z,11.28
2019-03-21T18:26:14.567Z,11.24
2019-03-21T18:27:14.555Z,11.16
2019-03-21T18:28:14.546Z,11.10
2019-03-21T18:29:14.536Z,11.05
2019-03-21T18:30:14.524Z,11.01
2019-03-21T18:31:14.513Z,10.97
2019-03-21T18:32:14.503Z,10.89
2019-03-21T18:33:14.495Z,10.79
2019-03-21T18:34:14.484Z,10.71
2019-03-21T18:35:14.469Z,10.71
2019-03-21T18:36:14.457Z,10.72
2019-03-21T18:37:14.448Z,10.71
2019-03-21T18:38:14.437Z,10.69
2019-03-21T18:39:14.514Z,10.68
2019-03-21T18:40:14.414Z,10.62
2019-03-21T18:41:14.403Z,10.56
2019-03-21T18:42:14.397Z,10.51
2019-03-21T18:43:14.383Z,10.47
2019-03-21T18:44:14.373Z,10.42
2019-03-21T18:45:14.362Z,10.35
2019-03-21T18:46:14.350Z,10.31
2019-03-21T18:47:14.338Z,10.31
2019-03-21T18:48:14.327Z,10.34
2019-03-21T18:49:14.317Z,10.31
2019-03-21T18:50:14.303Z,10.29
2019-03-21T18:51:14.302Z,10.28
2019-03-21T18:52:14.285Z,10.28
2019-03-21T18:53:14.279Z,10.25
2019-03-21T18:54:14.261Z,10.24
2019-03-21T18:55:14.253Z,10.26
2019-03-21T18:56:14.242Z,10.31
2019-03-21T18:57:14.229Z,10.34
2019-03-21T18:58:14.220Z,10.35
2019-03-21T18:59:14.207Z,10.31
2019-03-21T19:00:14.195Z,10.26
2019-03-21T19:01:14.189Z,10.24
2019-03-21T19:02:14.176Z,10.18
2019-03-21T19:03:14.165Z,10.17
2019-03-21T19:04:14.154Z,10.14
2019-03-21T19:05:14.141Z,10.10
2019-03-21T19:06:14.132Z,10.06
2019-03-21T19:07:14.121Z,10.02
2019-03-21T19:08:14.107Z,9.99
2019-03-21T19:09:14.097Z,9.99
2019-03-21T19:10:14.089Z,9.96
2019-03-21T19:11:14.077Z,9.91
2019-03-21T19:12:14.066Z,9.89
2019-03-21T19:13:14.053Z,9.85
2019-03-21T19:14:14.045Z,9.76
2019-03-21T19:15:14.034Z,9.70
2019-03-21T19:16:14.021Z,9.66
2019-03-21T19:17:14.009Z,9.59
2019-03-21T19:18:13.998Z,9.55
2019-03-21T19:19:13.991Z,9.57
2019-03-21T19:20:13.977Z,9.57
2019-03-21T19:21:13.967Z,9.58
2019-03-21T19:22:13.956Z,9.58
2019-03-21T19:23:13.947Z,9.55
2019-03-21T19:24:13.934Z,9.54
2019-03-21T19:25:18.991Z,9.49
2019-03-21T19:26:13.915Z,9.44
2019-03-21T19:27:13.905Z,9.43
2019-03-21T19:28:13.889Z,9.43
2019-03-21T19:29:15.078Z,9.44
2019-03-21T19:30:13.874Z,9.43
2019-03-21T19:31:13.859Z,9.41
2019-03-21T19:32:13.847Z,9.37
2019-03-21T19:33:13.837Z,9.34
2019-03-21T19:34:13.826Z,9.30
2019-03-21T19:35:13.814Z,9.29
2019-03-21T19:36:13.805Z,9.25
2019-03-21T19:37:13.795Z,9.25
2019-03-21T19:38:13.786Z,9.22
2019-03-21T19:39:13.773Z,9.16
2019-03-21T19:40:13.761Z,9.15
2019-03-21T19:41:13.750Z,9.07
2019-03-21T19:42:13.738Z,9.07
2019-03-21T19:43:13.727Z,9.07
2019-03-21T19:44:13.718Z,9.09
2019-03-21T19:45:13.707Z,9.14
2019-03-21T19:46:13.697Z,9.15
2019-03-21T19:47:23.169Z,9.16
2019-03-21T19:48:14.692Z,9.16
2019-03-21T19:49:13.672Z,9.12
2019-03-21T19:50:13.653Z,9.07
2019-03-21T19:51:13.642Z,9.04
2019-03-21T19:52:13.632Z,9.03
2019-03-21T19:53:13.619Z,9.00
2019-03-21T19:54:13.608Z,8.93
2019-03-21T19:55:13.596Z,8.89
2019-03-21T19:56:13.585Z,8.88
2019-03-21T19:57:13.574Z,8.83
2019-03-21T19:58:13.562Z,8.83
2019-03-21T19:59:13.554Z,8.83
2019-03-21T20:00:13.548Z,8.85
2019-03-21T20:01:13.531Z,8.86
2019-03-21T20:02:13.518Z,8.86
2019-03-21T20:03:13.513Z,8.82
2019-03-21T20:04:13.496Z,8.80
2019-03-21T20:05:13.487Z,8.80
2019-03-21T20:06:13.476Z,8.76
2019-03-21T20:07:13.464Z,8.70
2019-03-21T20:08:13.461Z,8.63
2019-03-21T20:09:13.442Z,8.54
2019-03-21T20:10:13.432Z,8.50
2019-03-21T20:11:13.421Z,8.46
2019-03-21T20:12:13.432Z,8.43
2019-03-21T20:13:13.399Z,8.35
2019-03-21T20:14:13.388Z,8.30
2019-03-21T20:15:13.377Z,8.26
2019-03-21T20:16:13.364Z,8.21
2019-03-21T20:17:13.353Z,8.19
2019-03-21T20:18:13.342Z,8.16
2019-03-21T20:19:13.331Z,8.12
2019-03-21T20:20:13.320Z,8.08
2019-03-21T20:21:13.309Z,8.06
2019-03-21T20:22:13.300Z,8.03
2019-03-21T20:23:13.288Z,8.05
2019-03-21T20:24:13.278Z,8.03
2019-03-21T20:25:13.267Z,8.02
2019-03-21T20:26:13.253Z,8.01
2019-03-21T20:27:13.244Z,7.99
2019-03-21T20:28:13.232Z,7.98
2019-03-21T20:29:13.223Z,7.95
2019-03-21T20:30:13.214Z,7.94
2019-03-21T20:31:13.198Z,7.93
2019-03-21T20:32:20.487Z,7.93
2019-03-21T20:33:34.359Z,7.91
2019-03-21T20:34:34.349Z,7.87
2019-03-21T20:35:34.337Z,7.87
2019-03-21T20:36:34.329Z,7.85
2019-03-21T20:37:34.316Z,7.83
2019-03-21T20:38:34.307Z,7.83
2019-03-21T20:39:34.295Z,7.83
2019-03-21T20:40:34.285Z,7.83
2019-03-21T20:41:34.273Z,7.83
2019-03-21T20:42:34.268Z,7.81
2019-03-21T20:43:34.252Z,7.85
2019-03-21T20:44:34.240Z,7.85
2019-03-21T20:45:34.230Z,7.88
2019-03-21T20:46:34.223Z,7.88
2019-03-21T20:47:35.224Z,7.85
2019-03-21T20:48:34.196Z,7.84
2019-03-21T20:49:34.190Z,7.80
2019-03-21T20:50:34.179Z,7.75
2019-03-21T20:51:34.166Z,7.72
2019-03-21T20:52:34.153Z,7.69
2019-03-21T20:53:34.146Z,7.63
2019-03-21T20:54:34.134Z,7.58
2019-03-21T20:55:34.122Z,7.55
2019-03-21T20:56:34.112Z,7.54
2019-03-21T20:57:34.102Z,7.58
2019-03-21T20:58:34.092Z,7.57
2019-03-21T20:59:34.080Z,7.54
2019-03-21T21:00:34.070Z,7.54
2019-03-21T21:01:34.058Z,7.51
2019-03-21T21:02:34.050Z,7.48
2019-03-21T21:03:34.038Z,7.47
2019-03-21T21:04:34.026Z,7.47
2019-03-21T21:05:34.015Z,7.47
2019-03-21T21:06:34.005Z,7.47
2019-03-21T21:07:33.996Z,7.48
2019-03-21T21:08:33.982Z,7.48
2019-03-21T21:09:33.972Z,7.50
2019-03-21T21:10:33.962Z,7.44
2019-03-21T21:11:35.165Z,7.37
2019-03-21T21:12:33.939Z,7.32
2019-03-21T21:13:33.927Z,7.27
2019-03-21T21:14:33.919Z,7.23
2019-03-21T21:15:33.908Z,7.21
2019-03-21T21:16:33.898Z,7.18
2019-03-21T21:17:33.886Z,7.16
2019-03-21T21:18:33.876Z,7.19
2019-03-21T21:19:33.863Z,7.19
2019-03-21T21:20:33.856Z,7.19
2019-03-21T21:21:33.841Z,7.16
2019-03-21T21:22:33.832Z,7.15
2019-03-21T21:23:33.822Z,7.12
2019-03-21T21:24:33.812Z,7.09
2019-03-21T21:25:33.799Z,7.05
2019-03-21T21:26:33.788Z,7.04
2019-03-21T21:27:33.778Z,7.04
2019-03-21T21:28:34.818Z,7.07
2019-03-21T21:29:33.756Z,7.09
2019-03-21T21:30:33.750Z,7.09
2019-03-21T21:31:33.740Z,7.11
2019-03-21T21:32:33.727Z,7.12
2019-03-21T21:33:33.715Z,7.12
2019-03-21T21:34:33.701Z,7.11
2019-03-21T21:35:33.695Z,7.09
2019-03-21T21:36:33.682Z,7.09
2019-03-21T21:37:33.671Z,7.11
2019-03-21T21:38:33.658Z,7.09
2019-03-21T21:39:33.650Z,7.08
2019-03-21T21:40:33.638Z,7.07
2019-03-21T21:41:33.628Z,7.05
2019-03-21T21:42:33.620Z,7.08
2019-03-21T21:43:33.606Z,7.07
2019-03-21T21:44:33.596Z,7.08
2019-03-21T21:45:33.585Z,7.07
2019-03-21T21:46:33.575Z,7.07
2019-03-21T21:47:33.565Z,7.07
2019-03-21T21:48:33.557Z,7.05
2019-03-21T21:49:33.544Z,7.04
2019-03-21T21:50:33.534Z,7.01
2019-03-21T21:51:33.526Z,6.97
2019-03-21T21:52:41.811Z,6.94
2019-03-21T21:53:54.731Z,6.89
2019-03-21T21:54:54.720Z,6.86
2019-03-21T21:55:54.708Z,6.86
2019-03-21T21:56:54.698Z,6.88
2019-03-21T21:57:54.689Z,6.90
2019-03-21T21:58:54.686Z,6.90
2019-03-21T21:59:54.670Z,6.90
2019-03-21T22:00:54.656Z,6.89
2019-03-21T22:01:54.647Z,6.88
2019-03-21T22:02:54.634Z,6.85
2019-03-21T22:04:04.277Z,6.85
2019-03-21T22:04:55.626Z,6.85
2019-03-21T22:05:54.600Z,6.82
2019-03-21T22:06:54.591Z,6.81
2019-03-21T22:07:54.578Z,6.78
2019-03-21T22:08:54.566Z,6.77
2019-03-21T22:09:54.554Z,6.72
2019-03-21T22:10:54.547Z,6.70
2019-03-21T22:11:54.535Z,6.64
2019-03-21T22:12:54.537Z,6.62
2019-03-21T22:13:54.515Z,6.59
2019-03-21T22:14:54.502Z,6.53
2019-03-21T22:15:54.491Z,6.53
2019-03-21T22:16:54.482Z,6.54
2019-03-21T22:17:54.470Z,6.54
2019-03-21T22:18:54.461Z,6.52
2019-03-21T22:19:54.450Z,6.54
2019-03-21T22:20:54.440Z,6.56
2019-03-21T22:21:54.427Z,6.54
2019-03-21T22:22:54.416Z,6.54
2019-03-21T22:23:54.407Z,6.54
2019-03-21T22:24:54.394Z,6.57
2019-03-21T22:25:54.390Z,6.59
2019-03-21T22:26:54.377Z,6.57
2019-03-21T22:27:54.364Z,6.54
2019-03-21T22:28:54.352Z,6.50
2019-03-21T22:29:54.340Z,6.44
2019-03-21T22:30:54.331Z,6.38
2019-03-21T22:31:54.319Z,6.31
2019-03-21T22:32:54.307Z,6.27
2019-03-21T22:33:54.297Z,6.27
2019-03-21T22:34:54.287Z,6.31
2019-03-21T22:35:54.276Z,6.34
2019-03-21T22:36:54.269Z,6.35
2019-03-21T22:37:54.255Z,6.34
2019-03-21T22:38:54.246Z,6.31
2019-03-21T22:39:54.231Z,6.24
2019-03-21T22:40:54.225Z,6.21
2019-03-21T22:41:54.211Z,6.19
2019-03-21T22:42:54.200Z,6.16
2019-03-21T22:43:54.192Z,6.14
2019-03-21T22:44:54.184Z,6.13
2019-03-21T22:45:54.169Z,6.06
2019-03-21T22:46:54.158Z,6.08
2019-03-21T22:47:54.148Z,6.13
2019-03-21T22:48:54.135Z,6.16
2019-03-21T22:49:54.124Z,6.19
2019-03-21T22:50:54.115Z,6.23
2019-03-21T22:51:54.103Z,6.23
2019-03-21T22:52:54.094Z,6.26
2019-03-21T22:53:54.084Z,6.26
2019-03-21T22:54:54.072Z,6.24
2019-03-21T22:55:54.060Z,6.29
2019-03-21T22:56:54.052Z,6.29
2019-03-21T22:57:54.038Z,6.29
2019-03-21T22:58:54.028Z,6.32
2019-03-21T22:59:54.016Z,6.32
2019-03-21T23:00:54.007Z,6.34
2019-03-21T23:01:54.005Z,6.32
2019-03-21T23:02:53.989Z,6.32
2019-03-21T23:03:53.975Z,6.32
2019-03-21T23:04:53.964Z,6.34
2019-03-21T23:05:53.992Z,6.34
2019-03-21T23:06:53.947Z,6.35
2019-03-21T23:07:53.932Z,6.34
2019-03-21T23:08:53.929Z,6.34
2019-03-21T23:09:53.911Z,6.35
2019-03-21T23:10:53.901Z,6.39
2019-03-21T23:23:52.271Z,6.34
2019-03-21T23:24:52.288Z,6.27
2019-03-21T23:25:52.271Z,6.21
2019-03-21T23:26:53.277Z,6.19
2019-03-21T23:27:52.228Z,6.16
2019-03-21T23:28:52.217Z,6.14
2019-03-21T23:29:52.206Z,6.13
2019-03-21T23:30:52.201Z,6.11
2019-03-21T23:31:52.182Z,6.08
2019-03-21T23:32:52.173Z,6.08
2019-03-21T23:33:52.166Z,6.10
2019-03-21T23:34:52.149Z,6.13
2019-03-21T23:35:52.140Z,6.14
2019-03-21T23:36:52.132Z,6.17
2019-03-21T23:37:52.119Z,6.16
2019-03-21T23:38:52.106Z,6.17
2019-03-21T23:39:52.097Z,6.17
2019-03-21T23:40:52.087Z,6.20
2019-03-21T23:41:52.076Z,6.20
2019-03-21T23:42:52.064Z,6.20
2019-03-21T23:43:52.063Z,6.20
2019-03-21T23:44:52.042Z,6.20
2019-03-21T23:45:52.032Z,6.17
2019-03-21T23:46:52.024Z,6.17
2019-03-21T23:47:52.010Z,6.13
2019-03-21T23:48:52.002Z,6.06
2019-03-21T23:49:51.989Z,6.01
2019-03-21T23:50:51.988Z,5.93
2019-03-21T23:51:51.965Z,5.92
2019-03-21T23:52:51.957Z,5.90
2019-03-21T23:53:51.944Z,5.95
2019-03-21T23:54:51.934Z,5.98
2019-03-21T23:55:51.926Z,5.99
2019-03-21T23:56:51.915Z,6.02
2019-03-21T23:57:51.903Z,6.05
2019-03-21T23:58:51.889Z,6.05
2019-03-21T23:59:51.879Z,6.05
